createdAt,value
2019-05-31T00:01:02.439Z,419
2019-05-31T00:02:09.383Z,419
2019-05-31T00:03:16.327Z,419
2019-05-31T00:04:23.253Z,419
2019-05-31T00:05:30.466Z,419
2019-05-31T00:06:37.675Z,419
2019-05-31T00:07:44.883Z,419
2019-05-31T00:08:53.528Z,418
2019-05-31T00:10:02.213Z,419
2019-05-31T00:11:09.497Z,419
2019-05-31T00:12:16.699Z,419
2019-05-31T00:13:23.909Z,418
2019-05-31T00:14:31.119Z,419
2019-05-31T00:15:38.328Z,419
2019-05-31T00:16:45.542Z,419
2019-05-31T00:17:54.458Z,419
2019-05-31T00:19:03.586Z,419
2019-05-31T00:20:10.793Z,419
2019-05-31T00:21:17.997Z,419
2019-05-31T00:22:24.941Z,419
2019-05-31T00:23:32.142Z,419
2019-05-31T00:24:39.361Z,419
2019-05-31T00:25:46.295Z,420
2019-05-31T00:26:54.862Z,419
2019-05-31T00:28:03.864Z,419
2019-05-31T00:29:11.058Z,419
2019-05-31T00:30:18.479Z,419
2019-05-31T00:31:25.697Z,419
2019-05-31T00:32:32.902Z,418
2019-05-31T00:33:40.122Z,419
2019-05-31T00:34:47.329Z,419
2019-05-31T00:35:55.424Z,420
2019-05-31T00:37:03.917Z,420
2019-05-31T00:38:11.133Z,420
2019-05-31T00:39:18.072Z,420
2019-05-31T00:40:25.280Z,420
2019-05-31T00:41:32.214Z,420
2019-05-31T00:42:39.421Z,420
2019-05-31T00:43:46.358Z,419
2019-05-31T00:44:53.562Z,419
2019-05-31T00:46:03.690Z,419
2019-05-31T00:47:10.387Z,420
2019-05-31T00:48:17.604Z,420
2019-05-31T00:49:24.797Z,419
2019-05-31T00:50:32.005Z,420
2019-05-31T00:51:39.205Z,419
2019-05-31T00:52:46.462Z,419
2019-05-31T00:53:53.395Z,419
2019-05-31T00:55:02.296Z,420
2019-05-31T00:56:09.599Z,418
2019-05-31T00:57:16.810Z,420
2019-05-31T00:58:24.030Z,420
2019-05-31T00:59:31.232Z,420
2019-05-31T01:00:38.443Z,419
2019-05-31T01:01:45.646Z,420
2019-05-31T01:02:52.858Z,420
2019-05-31T01:04:01.027Z,419
2019-05-31T01:05:08.420Z,419
2019-05-31T01:06:15.075Z,420
2019-05-31T01:07:22.310Z,419
2019-05-31T01:08:29.525Z,419
2019-05-31T01:09:36.731Z,419
2019-05-31T01:10:43.944Z,421
2019-05-31T01:11:51.155Z,420
2019-05-31T01:12:59.715Z,420
2019-05-31T01:14:08.060Z,420
2019-05-31T01:15:15.343Z,420
2019-05-31T01:16:22.548Z,420
2019-05-31T01:17:29.522Z,419
2019-05-31T01:18:36.454Z,420
2019-05-31T01:19:43.671Z,419
2019-05-31T01:20:50.623Z,420
2019-05-31T01:21:59.033Z,420
2019-05-31T01:23:09.186Z,420
2019-05-31T01:24:16.441Z,421
2019-05-31T01:25:23.649Z,420
2019-05-31T01:26:30.585Z,420
2019-05-31T01:27:37.519Z,420
2019-05-31T01:28:44.726Z,421
2019-05-31T01:29:51.661Z,421
2019-05-31T01:30:59.525Z,421
2019-05-31T01:32:07.893Z,421
2019-05-31T01:33:15.171Z,421
2019-05-31T01:34:22.376Z,421
2019-05-31T01:35:29.044Z,421
2019-05-31T01:36:36.251Z,421
2019-05-31T01:37:43.464Z,421
2019-05-31T01:38:50.678Z,421
2019-05-31T01:39:57.887Z,421
2019-05-31T01:41:06.815Z,421
2019-05-31T01:42:14.074Z,421
2019-05-31T01:43:21.314Z,421
2019-05-31T01:44:28.521Z,422
2019-05-31T01:45:35.734Z,421
2019-05-31T01:46:42.943Z,421
2019-05-31T01:47:49.883Z,421
2019-05-31T01:48:57.088Z,421
2019-05-31T01:50:05.659Z,421
2019-05-31T01:51:13.010Z,421
2019-05-31T01:52:20.215Z,421
2019-05-31T01:53:27.434Z,421
2019-05-31T01:54:34.364Z,421
2019-05-31T01:55:41.298Z,422
2019-05-31T01:56:48.243Z,422
2019-05-31T01:57:54.947Z,423
2019-05-31T01:59:04.420Z,422
2019-05-31T02:00:12.942Z,422
2019-05-31T02:01:20.210Z,422
2019-05-31T02:02:27.151Z,422
2019-05-31T02:03:34.356Z,422
2019-05-31T02:04:41.570Z,422
2019-05-31T02:05:48.775Z,422
2019-05-31T02:06:55.989Z,422
2019-05-31T02:08:04.582Z,422
2019-05-31T02:09:13.027Z,422
2019-05-31T02:10:20.366Z,421
2019-05-31T02:11:27.583Z,422
2019-05-31T02:12:34.788Z,422
2019-05-31T02:13:41.998Z,422
2019-05-31T02:14:49.238Z,422
2019-05-31T02:15:56.431Z,423
2019-05-31T02:17:03.097Z,423
2019-05-31T02:18:12.781Z,423
2019-05-31T02:19:20.030Z,423
2019-05-31T02:20:27.230Z,422
2019-05-31T02:21:34.442Z,422
2019-05-31T02:22:41.657Z,423
2019-05-31T02:23:48.865Z,423
2019-05-31T02:24:56.113Z,422
2019-05-31T02:26:03.367Z,423
2019-05-31T02:27:13.315Z,423
2019-05-31T02:28:20.583Z,423
2019-05-31T02:29:27.787Z,423
2019-05-31T02:30:34.994Z,423
2019-05-31T02:31:42.200Z,423
2019-05-31T02:32:49.149Z,423
2019-05-31T02:33:56.080Z,423
2019-05-31T02:35:03.275Z,423
2019-05-31T02:36:17.421Z,423
2019-05-31T02:37:24.824Z,423
2019-05-31T02:38:31.753Z,423
2019-05-31T02:39:38.962Z,424
2019-05-31T02:40:45.899Z,424
2019-05-31T02:41:53.167Z,423
2019-05-31T02:43:00.389Z,423
2019-05-31T02:44:11.708Z,424
2019-05-31T02:45:20.445Z,424
2019-05-31T02:46:27.654Z,424
2019-05-31T02:47:34.590Z,424
2019-05-31T02:48:41.798Z,424
2019-05-31T02:49:48.736Z,424
2019-05-31T02:50:55.940Z,424
2019-05-31T02:52:02.857Z,425
2019-05-31T02:53:14.472Z,424
2019-05-31T02:54:23.691Z,424
2019-05-31T02:55:30.649Z,424
2019-05-31T02:56:37.864Z,424
2019-05-31T02:57:45.071Z,424
2019-05-31T02:58:52.026Z,424
2019-05-31T02:59:59.242Z,424
2019-05-31T03:01:06.181Z,424
2019-05-31T03:02:17.169Z,424
2019-05-31T03:03:26.382Z,424
2019-05-31T03:04:33.584Z,424
2019-05-31T03:05:40.790Z,425
2019-05-31T03:06:47.996Z,424
2019-05-31T03:07:55.204Z,424
2019-05-31T03:09:02.184Z,424
2019-05-31T03:10:15.878Z,424
2019-05-31T03:11:26.816Z,424
2019-05-31T03:12:34.026Z,425
2019-05-31T03:13:41.237Z,425
2019-05-31T03:14:48.446Z,424
2019-05-31T03:16:11.022Z,424
2019-05-31T03:17:21.995Z,425
2019-05-31T03:18:29.200Z,425
2019-05-31T03:19:36.399Z,425
2019-05-31T03:20:43.608Z,425
2019-05-31T03:21:50.819Z,425
2019-05-31T03:22:58.039Z,425
2019-05-31T03:24:05.243Z,425
2019-05-31T03:25:16.483Z,425
2019-05-31T03:26:26.252Z,425
2019-05-31T03:27:33.455Z,425
2019-05-31T03:28:40.689Z,425
2019-05-31T03:29:47.885Z,425
2019-05-31T03:30:55.287Z,426
2019-05-31T03:32:07.913Z,425
2019-05-31T03:33:36.701Z,425
2019-05-31T03:34:44.980Z,426
2019-05-31T03:35:52.208Z,426
2019-05-31T03:36:59.620Z,425
2019-05-31T03:38:06.555Z,425
2019-05-31T03:39:18.820Z,426
2019-05-31T03:40:28.557Z,426
2019-05-31T03:41:35.775Z,426
2019-05-31T03:42:42.982Z,426
2019-05-31T03:43:50.184Z,426
2019-05-31T03:44:57.618Z,425
2019-05-31T03:46:04.833Z,425
2019-05-31T03:47:32.902Z,425
2019-05-31T03:48:40.108Z,425
2019-05-31T03:49:50.916Z,425
2019-05-31T03:50:59.011Z,426
2019-05-31T03:52:06.265Z,425
2019-05-31T03:53:17.216Z,426
2019-05-31T03:54:28.354Z,425
2019-05-31T03:55:35.287Z,425
2019-05-31T03:56:42.490Z,425
2019-05-31T03:57:49.696Z,426
2019-05-31T03:58:56.903Z,425
2019-05-31T04:00:04.111Z,425
2019-05-31T04:01:11.313Z,425
2019-05-31T04:02:21.566Z,425
2019-05-31T04:03:30.692Z,425
2019-05-31T04:04:37.905Z,426
2019-05-31T04:05:59.207Z,425
2019-05-31T04:07:06.138Z,425
2019-05-31T04:08:13.349Z,425
2019-05-31T04:09:24.146Z,425
2019-05-31T04:10:31.358Z,425
2019-05-31T04:11:38.579Z,425
2019-05-31T04:12:45.783Z,425
2019-05-31T04:13:52.726Z,425
2019-05-31T04:14:59.930Z,425
2019-05-31T04:16:07.141Z,425
2019-05-31T04:17:19.446Z,425
2019-05-31T04:18:35.769Z,424
2019-05-31T04:19:42.998Z,425
2019-05-31T04:20:50.206Z,424
2019-05-31T04:21:57.140Z,424
2019-05-31T04:23:04.347Z,424
2019-05-31T04:24:11.555Z,424
2019-05-31T04:25:22.980Z,424
2019-05-31T04:26:31.989Z,424
2019-05-31T04:27:39.189Z,424
2019-05-31T04:28:46.121Z,424
2019-05-31T04:29:53.328Z,423
2019-05-31T04:31:00.537Z,424
2019-05-31T04:32:07.471Z,424
2019-05-31T04:33:17.844Z,423
2019-05-31T04:34:33.593Z,423
2019-05-31T04:35:40.522Z,423
2019-05-31T04:36:47.721Z,423
2019-05-31T04:37:54.929Z,423
2019-05-31T04:39:02.135Z,423
2019-05-31T04:40:09.350Z,423
2019-05-31T04:41:22.686Z,423
2019-05-31T04:42:31.945Z,423
2019-05-31T04:43:39.161Z,422
2019-05-31T04:44:46.367Z,422
2019-05-31T04:45:53.581Z,422
2019-05-31T04:47:12.632Z,423
2019-05-31T04:48:24.622Z,423
2019-05-31T04:49:34.096Z,423
2019-05-31T04:50:41.300Z,422
2019-05-31T04:51:48.660Z,423
2019-05-31T04:52:55.862Z,423
2019-05-31T04:54:03.071Z,422
2019-05-31T04:55:10.286Z,422
2019-05-31T04:56:22.849Z,422
2019-05-31T04:57:33.273Z,422
2019-05-31T04:58:40.480Z,421
2019-05-31T04:59:47.684Z,422
2019-05-31T05:00:54.626Z,422
2019-05-31T05:02:01.892Z,422
2019-05-31T05:03:09.106Z,422
2019-05-31T05:04:18.610Z,421
2019-05-31T05:05:27.796Z,421
2019-05-31T05:06:35.011Z,421
2019-05-31T05:07:41.953Z,421
2019-05-31T05:08:49.159Z,420
2019-05-31T05:09:56.119Z,420
2019-05-31T05:11:03.329Z,419
2019-05-31T05:12:10.545Z,419
2019-05-31T05:13:18.762Z,420
2019-05-31T05:14:28.023Z,419
2019-05-31T05:15:35.235Z,419
2019-05-31T05:16:42.459Z,419
2019-05-31T05:17:49.666Z,418
2019-05-31T05:18:56.876Z,419
2019-05-31T05:20:04.076Z,419
2019-05-31T05:21:11.296Z,418
2019-05-31T05:22:20.635Z,418
2019-05-31T05:23:28.413Z,417
2019-05-31T05:24:35.348Z,418
2019-05-31T05:25:42.628Z,417
2019-05-31T05:26:49.818Z,417
2019-05-31T05:27:57.018Z,417
2019-05-31T05:29:04.250Z,416
2019-05-31T05:30:11.176Z,417
2019-05-31T05:31:19.684Z,416
2019-05-31T05:32:28.033Z,416
2019-05-31T05:33:35.270Z,416
2019-05-31T05:34:42.472Z,416
2019-05-31T05:35:49.683Z,415
2019-05-31T05:36:56.915Z,415
2019-05-31T05:38:04.103Z,415
2019-05-31T05:39:11.313Z,415
2019-05-31T05:40:20.644Z,415
2019-05-31T05:41:29.988Z,414
2019-05-31T05:42:36.975Z,414
2019-05-31T05:43:44.181Z,414
2019-05-31T05:44:51.387Z,414
2019-05-31T05:45:58.613Z,413
2019-05-31T05:47:06.009Z,413
2019-05-31T05:48:13.215Z,412
2019-05-31T05:49:22.060Z,412
2019-05-31T05:50:30.917Z,413
2019-05-31T05:51:38.123Z,413
2019-05-31T05:52:45.057Z,414
2019-05-31T05:53:52.268Z,414
2019-05-31T05:54:58.938Z,413
2019-05-31T05:56:06.143Z,414
2019-05-31T05:57:13.352Z,414
2019-05-31T05:58:23.642Z,413
2019-05-31T05:59:33.407Z,412
2019-05-31T06:00:40.622Z,412
2019-05-31T06:01:47.835Z,411
2019-05-31T06:02:54.773Z,411
2019-05-31T06:04:01.976Z,410
2019-05-31T06:05:09.180Z,410
2019-05-31T06:06:16.442Z,410
2019-05-31T06:07:24.515Z,409
2019-05-31T06:08:36.676Z,409
2019-05-31T06:09:43.886Z,408
2019-05-31T06:10:50.808Z,409
2019-05-31T06:11:57.739Z,409
2019-05-31T06:13:04.946Z,409
2019-05-31T06:14:12.160Z,409
2019-05-31T06:15:19.380Z,408
2019-05-31T06:17:03.819Z,408
2019-05-31T06:18:12.219Z,407
2019-05-31T06:19:19.157Z,407
2019-05-31T06:20:28.211Z,407
2019-05-31T06:21:36.538Z,407
2019-05-31T06:22:43.825Z,406
2019-05-31T06:23:51.028Z,405
2019-05-31T06:24:57.968Z,405
2019-05-31T06:26:04.933Z,405
2019-05-31T06:27:12.139Z,405
2019-05-31T06:28:19.085Z,406
2019-05-31T06:29:28.615Z,404
2019-05-31T06:30:36.966Z,404
2019-05-31T06:31:43.736Z,404
2019-05-31T06:32:50.945Z,404
2019-05-31T06:33:58.162Z,403
2019-05-31T06:35:05.369Z,402
2019-05-31T06:36:12.422Z,401
2019-05-31T06:37:19.632Z,402
2019-05-31T06:38:29.296Z,402
2019-05-31T06:39:38.253Z,402
2019-05-31T06:40:45.190Z,401
2019-05-31T06:41:52.118Z,403
2019-05-31T06:42:59.328Z,402
2019-05-31T06:44:06.537Z,400
2019-05-31T06:45:13.746Z,400
2019-05-31T06:46:20.958Z,400
2019-05-31T06:47:30.602Z,401
2019-05-31T06:48:37.866Z,402
2019-05-31T06:49:45.074Z,401
2019-05-31T06:50:52.305Z,402
2019-05-31T06:51:59.527Z,401
2019-05-31T06:53:06.733Z,401
2019-05-31T06:54:13.939Z,402
2019-05-31T06:55:21.156Z,401
2019-05-31T06:56:29.628Z,400
2019-05-31T06:57:37.446Z,397
2019-05-31T06:58:44.390Z,396
2019-05-31T06:59:51.591Z,398
2019-05-31T07:00:58.804Z,398
2019-05-31T07:02:06.017Z,399
2019-05-31T07:03:13.223Z,397
2019-05-31T07:04:20.442Z,397
2019-05-31T07:05:29.546Z,395
2019-05-31T07:06:37.918Z,394
2019-05-31T07:07:45.122Z,393
2019-05-31T07:08:52.332Z,392
2019-05-31T07:09:59.536Z,393
2019-05-31T07:11:06.935Z,394
2019-05-31T07:12:18.639Z,394
2019-05-31T07:13:25.581Z,392
2019-05-31T07:14:38.517Z,394
2019-05-31T07:15:45.839Z,395
2019-05-31T07:16:53.047Z,396
2019-05-31T07:18:00.259Z,397
2019-05-31T07:19:07.472Z,395
2019-05-31T07:20:14.682Z,393
2019-05-31T07:21:21.890Z,393
2019-05-31T07:22:30.320Z,394
2019-05-31T07:23:43.813Z,392
2019-05-31T07:24:50.776Z,393
2019-05-31T07:25:57.989Z,394
2019-05-31T07:27:05.196Z,390
2019-05-31T07:28:12.403Z,387
2019-05-31T07:29:44.277Z,388
2019-05-31T07:31:05.965Z,387
2019-05-31T07:32:13.177Z,385
2019-05-31T07:33:20.388Z,385
2019-05-31T07:34:27.325Z,385
2019-05-31T07:35:36.088Z,384
2019-05-31T07:36:43.359Z,384
2019-05-31T07:37:50.574Z,382
2019-05-31T07:38:57.510Z,386
2019-05-31T07:40:04.717Z,390
2019-05-31T07:41:11.651Z,390
2019-05-31T07:42:18.638Z,387
2019-05-31T07:43:25.850Z,386
2019-05-31T07:44:35.554Z,382
2019-05-31T07:45:44.132Z,380
2019-05-31T07:47:09.083Z,379
2019-05-31T07:48:16.384Z,377
2019-05-31T07:49:23.602Z,377
2019-05-31T07:50:32.131Z,382
2019-05-31T07:51:40.461Z,384
2019-05-31T07:52:47.790Z,385
2019-05-31T07:53:55.113Z,382
2019-05-31T07:55:02.456Z,384
2019-05-31T07:56:09.661Z,382
2019-05-31T07:57:31.253Z,382
2019-05-31T07:58:39.254Z,382
2019-05-31T07:59:49.985Z,383
2019-05-31T08:00:56.928Z,384
2019-05-31T08:02:04.235Z,384
2019-05-31T08:03:10.944Z,386
2019-05-31T08:04:18.164Z,387
2019-05-31T08:05:27.122Z,387
2019-05-31T08:06:54.964Z,387
2019-05-31T08:08:01.627Z,387
2019-05-31T08:09:08.835Z,387
2019-05-31T08:10:15.779Z,386
2019-05-31T08:11:23.017Z,384
2019-05-31T08:12:33.356Z,382
2019-05-31T08:13:40.381Z,380
2019-05-31T08:14:47.586Z,381
2019-05-31T08:15:54.796Z,381
2019-05-31T08:17:02.013Z,381
2019-05-31T08:18:09.223Z,381
2019-05-31T08:19:17.496Z,381
2019-05-31T08:20:25.785Z,380
2019-05-31T08:21:38.050Z,382
2019-05-31T08:22:45.268Z,383
2019-05-31T08:23:52.492Z,385
2019-05-31T08:24:59.433Z,384
2019-05-31T08:26:06.645Z,386
2019-05-31T08:27:13.863Z,387
2019-05-31T08:28:21.081Z,389
2019-05-31T08:29:31.094Z,387
2019-05-31T08:30:39.705Z,384
2019-05-31T08:31:47.073Z,385
2019-05-31T08:32:54.285Z,388
2019-05-31T08:34:01.499Z,389
2019-05-31T08:35:08.704Z,387
2019-05-31T08:36:15.640Z,387
2019-05-31T08:37:22.856Z,387
2019-05-31T08:38:32.614Z,389
2019-05-31T08:39:41.489Z,389
2019-05-31T08:40:48.715Z,389
2019-05-31T08:41:55.946Z,389
2019-05-31T08:43:03.157Z,390
2019-05-31T08:44:10.375Z,390
2019-05-31T08:45:20.602Z,392
2019-05-31T08:46:29.006Z,394
2019-05-31T08:47:46.605Z,394
2019-05-31T08:48:54.817Z,394
2019-05-31T08:50:01.973Z,393
2019-05-31T08:51:09.479Z,394
2019-05-31T08:52:41.539Z,394
2019-05-31T08:53:53.105Z,391
2019-05-31T08:55:00.040Z,390
2019-05-31T08:56:07.253Z,392
2019-05-31T08:57:14.463Z,392
2019-05-31T08:58:21.678Z,391
2019-05-31T08:59:29.979Z,390
2019-05-31T09:00:39.558Z,392
2019-05-31T09:01:46.767Z,392
2019-05-31T09:02:53.980Z,389
2019-05-31T09:04:00.921Z,389
2019-05-31T09:05:08.130Z,389
2019-05-31T09:06:15.061Z,389
2019-05-31T09:07:22.276Z,389
2019-05-31T09:08:34.332Z,387
2019-05-31T09:09:41.623Z,383
2019-05-31T09:10:48.558Z,382
2019-05-31T09:11:55.768Z,382
2019-05-31T09:13:03.088Z,380
2019-05-31T09:14:10.292Z,377
2019-05-31T09:15:17.519Z,375
2019-05-31T09:16:24.459Z,376
2019-05-31T09:17:38.324Z,375
2019-05-31T09:19:02.301Z,373
2019-05-31T09:20:09.243Z,378
2019-05-31T09:21:16.461Z,378
2019-05-31T09:22:23.672Z,380
2019-05-31T09:23:35.390Z,380
2019-05-31T09:24:43.651Z,381
2019-05-31T09:25:50.862Z,382
2019-05-31T09:26:57.798Z,381
2019-05-31T09:28:04.769Z,379
2019-05-31T09:29:11.977Z,379
2019-05-31T09:30:23.555Z,378
2019-05-31T09:31:36.656Z,377
2019-05-31T09:32:45.724Z,377
2019-05-31T09:33:52.936Z,378
2019-05-31T09:34:59.887Z,381
2019-05-31T09:36:06.823Z,378
2019-05-31T09:37:14.035Z,377
2019-05-31T09:38:24.050Z,378
2019-05-31T09:39:45.440Z,381
2019-05-31T09:40:52.716Z,382
2019-05-31T09:41:59.396Z,383
2019-05-31T09:43:21.254Z,382
2019-05-31T09:44:28.194Z,383
2019-05-31T09:45:39.919Z,386
2019-05-31T09:46:48.529Z,389
2019-05-31T09:47:55.752Z,389
2019-05-31T09:49:02.698Z,389
2019-05-31T09:50:15.557Z,389
2019-05-31T09:51:22.846Z,387
2019-05-31T09:52:31.478Z,388
2019-05-31T09:53:41.818Z,385
2019-05-31T09:54:53.065Z,383
2019-05-31T09:56:00.287Z,377
2019-05-31T09:57:07.500Z,364
2019-05-31T09:58:14.175Z,353
2019-05-31T09:59:21.403Z,349
2019-05-31T10:00:28.613Z,357
2019-05-31T10:01:40.463Z,364
2019-05-31T10:03:03.794Z,364
2019-05-31T10:04:11.049Z,376
2019-05-31T10:05:18.277Z,377
2019-05-31T10:06:25.480Z,371
2019-05-31T10:07:36.260Z,370
2019-05-31T10:08:46.924Z,373
2019-05-31T10:09:54.156Z,359
2019-05-31T10:11:01.367Z,354
2019-05-31T10:12:08.581Z,352
2019-05-31T10:13:15.800Z,351
2019-05-31T10:14:22.741Z,352
2019-05-31T10:15:29.959Z,349
2019-05-31T10:16:40.753Z,349
2019-05-31T10:17:48.376Z,345
2019-05-31T10:18:55.325Z,339
2019-05-31T10:20:02.534Z,342
2019-05-31T10:21:09.751Z,339
2019-05-31T10:22:16.968Z,340
2019-05-31T10:23:55.495Z,341
2019-05-31T10:25:03.737Z,353
2019-05-31T10:26:10.955Z,359
2019-05-31T10:27:18.371Z,359
2019-05-31T10:28:25.583Z,361
2019-05-31T10:29:34.610Z,362
2019-05-31T10:30:44.507Z,364
2019-05-31T10:31:55.231Z,372
2019-05-31T10:33:02.441Z,377
2019-05-31T10:34:09.666Z,378
2019-05-31T10:35:16.877Z,378
2019-05-31T10:36:24.126Z,380
2019-05-31T10:37:31.342Z,381
2019-05-31T10:38:41.865Z,381
2019-05-31T10:39:49.121Z,382
2019-05-31T10:40:56.336Z,382
2019-05-31T10:42:03.014Z,382
2019-05-31T10:43:25.625Z,380
2019-05-31T10:44:36.243Z,382
2019-05-31T10:45:45.248Z,382
2019-05-31T10:46:52.587Z,382
2019-05-31T10:47:59.796Z,382
2019-05-31T10:49:07.927Z,384
2019-05-31T10:50:15.155Z,384
2019-05-31T10:51:22.092Z,381
2019-05-31T10:52:29.030Z,379
2019-05-31T10:53:40.118Z,379
2019-05-31T10:54:49.147Z,380
2019-05-31T10:55:56.359Z,381
2019-05-31T10:57:03.582Z,381
2019-05-31T10:58:10.805Z,379
2019-05-31T10:59:17.771Z,379
2019-05-31T11:00:24.757Z,380
2019-05-31T11:01:31.974Z,378
2019-05-31T11:02:40.426Z,376
2019-05-31T11:03:47.478Z,372
2019-05-31T11:04:54.705Z,371
2019-05-31T11:06:01.921Z,372
2019-05-31T11:07:09.133Z,372
2019-05-31T11:08:16.377Z,370
2019-05-31T11:09:23.587Z,372
2019-05-31T11:10:30.797Z,371
2019-05-31T11:11:46.576Z,370
2019-05-31T11:12:53.954Z,369
2019-05-31T11:14:01.161Z,368
2019-05-31T11:15:08.373Z,368
2019-05-31T11:16:15.581Z,371
2019-05-31T11:17:22.519Z,370
2019-05-31T11:18:29.743Z,372
2019-05-31T11:20:04.865Z,374
2019-05-31T11:21:12.137Z,371
2019-05-31T11:22:19.358Z,369
2019-05-31T11:23:26.583Z,369
2019-05-31T11:24:33.801Z,354
2019-05-31T11:25:42.536Z,351
2019-05-31T11:26:52.077Z,335
2019-05-31T11:28:00.415Z,327
2019-05-31T11:29:08.298Z,326
2019-05-31T11:30:15.574Z,324
2019-05-31T11:31:22.519Z,327
2019-05-31T11:32:29.726Z,322
2019-05-31T11:33:51.311Z,324
2019-05-31T11:34:58.867Z,330
2019-05-31T11:36:06.071Z,330
2019-05-31T11:37:13.286Z,346
2019-05-31T11:38:20.508Z,357
2019-05-31T11:39:27.722Z,363
2019-05-31T11:40:34.940Z,361
2019-05-31T11:41:45.262Z,358
2019-05-31T11:45:10.290Z,361
2019-05-31T11:46:17.762Z,371
2019-05-31T11:47:25.041Z,372
2019-05-31T11:48:32.314Z,373
2019-05-31T11:49:41.172Z,374
2019-05-31T11:50:50.035Z,374
2019-05-31T11:51:57.252Z,376
2019-05-31T11:53:04.471Z,376
2019-05-31T11:54:11.688Z,379
2019-05-31T11:55:25.253Z,379
2019-05-31T11:56:43.567Z,378
2019-05-31T11:57:55.925Z,379
2019-05-31T11:59:03.134Z,381
2019-05-31T12:00:10.354Z,381
2019-05-31T12:01:17.293Z,381
2019-05-31T12:02:24.625Z,382
2019-05-31T12:03:31.666Z,381
2019-05-31T12:04:42.084Z,381
2019-05-31T12:05:50.761Z,381
2019-05-31T12:06:57.984Z,381
2019-05-31T12:08:05.207Z,381
2019-05-31T12:09:12.169Z,381
2019-05-31T12:10:19.455Z,380
2019-05-31T12:11:26.710Z,378
2019-05-31T12:12:33.652Z,378
2019-05-31T12:13:42.330Z,377
2019-05-31T12:14:51.218Z,378
2019-05-31T12:15:58.155Z,377
2019-05-31T12:17:05.098Z,376
2019-05-31T12:18:12.044Z,376
2019-05-31T12:19:19.267Z,376
2019-05-31T12:20:26.210Z,375
2019-05-31T12:22:01.507Z,374
2019-05-31T12:23:08.607Z,373
2019-05-31T12:24:15.828Z,373
2019-05-31T12:25:23.041Z,372
2019-05-31T12:26:30.251Z,372
2019-05-31T12:27:38.685Z,371
2019-05-31T12:28:48.951Z,369
2019-05-31T12:29:57.741Z,371
2019-05-31T12:31:04.987Z,371
2019-05-31T12:32:11.933Z,371
2019-05-31T12:33:19.150Z,373
2019-05-31T12:34:26.402Z,373
2019-05-31T12:35:33.620Z,371
2019-05-31T12:36:42.859Z,371
2019-05-31T12:37:52.088Z,370
2019-05-31T12:38:59.331Z,370
2019-05-31T12:40:06.543Z,369
2019-05-31T12:41:13.762Z,367
2019-05-31T12:42:20.986Z,366
2019-05-31T12:43:28.207Z,365
2019-05-31T12:44:35.471Z,364
2019-05-31T12:45:43.842Z,361
2019-05-31T12:46:52.195Z,362
2019-05-31T12:47:59.408Z,363
2019-05-31T12:49:06.347Z,360
2019-05-31T12:50:14.564Z,360
2019-05-31T12:51:28.436Z,361
2019-05-31T12:52:35.708Z,359
2019-05-31T12:53:44.421Z,356
2019-05-31T12:54:52.709Z,354
2019-05-31T12:56:00.013Z,353
2019-05-31T12:57:07.232Z,354
2019-05-31T12:58:14.446Z,355
2019-05-31T12:59:21.661Z,352
2019-05-31T13:00:28.597Z,352
2019-05-31T13:01:35.885Z,349
2019-05-31T13:02:57.116Z,351
2019-05-31T13:04:04.484Z,347
2019-05-31T13:05:11.893Z,351
2019-05-31T13:06:19.108Z,349
2019-05-31T13:07:26.323Z,348
2019-05-31T13:08:33.261Z,349
2019-05-31T13:09:40.191Z,353
2019-05-31T13:10:50.348Z,356
2019-05-31T13:11:57.624Z,362
2019-05-31T13:13:04.582Z,363
2019-05-31T13:14:11.518Z,359
2019-05-31T13:15:18.459Z,357
2019-05-31T13:16:25.681Z,359
2019-05-31T13:17:32.885Z,361
2019-05-31T13:18:40.100Z,364
2019-05-31T13:19:49.854Z,364
2019-05-31T13:20:58.879Z,366
2019-05-31T13:22:24.083Z,365
2019-05-31T13:23:31.324Z,368
2019-05-31T13:24:38.268Z,369
2019-05-31T13:25:46.564Z,368
2019-05-31T13:26:55.364Z,368
2019-05-31T13:28:02.577Z,369
2019-05-31T13:29:09.790Z,370
2019-05-31T13:30:17.009Z,371
2019-05-31T13:31:24.231Z,371
2019-05-31T13:32:31.221Z,371
2019-05-31T13:33:38.434Z,372
2019-05-31T13:34:47.120Z,373
2019-05-31T13:35:56.070Z,372
2019-05-31T13:37:02.482Z,372
2019-05-31T13:38:09.700Z,370
2019-05-31T13:39:31.564Z,369
2019-05-31T13:40:38.791Z,370
2019-05-31T13:41:47.482Z,369
2019-05-31T13:42:56.652Z,367
2019-05-31T13:44:18.523Z,364
2019-05-31T13:45:25.840Z,366
2019-05-31T13:46:33.113Z,365
2019-05-31T13:47:40.068Z,363
2019-05-31T13:48:48.292Z,359
2019-05-31T13:49:58.100Z,356
2019-05-31T13:51:05.319Z,354
2019-05-31T13:52:12.553Z,357
2019-05-31T13:53:19.755Z,358
2019-05-31T13:54:26.973Z,358
2019-05-31T13:55:34.187Z,358
2019-05-31T13:56:41.396Z,358
2019-05-31T13:57:52.899Z,358
2019-05-31T13:59:00.227Z,360
2019-05-31T14:00:07.440Z,362
2019-05-31T14:01:14.677Z,360
2019-05-31T14:02:21.891Z,360
2019-05-31T14:03:29.112Z,359
2019-05-31T14:04:36.327Z,356
2019-05-31T14:05:43.279Z,355
2019-05-31T14:06:51.842Z,353
2019-05-31T14:07:59.939Z,355
2019-05-31T14:09:07.148Z,352
2019-05-31T14:10:13.833Z,348
2019-05-31T14:11:21.050Z,347
2019-05-31T14:12:28.265Z,348
2019-05-31T14:13:36.338Z,342
2019-05-31T14:14:43.551Z,339
2019-05-31T14:15:54.718Z,338
2019-05-31T14:17:03.631Z,317
2019-05-31T14:18:11.068Z,305
2019-05-31T14:19:18.885Z,307
2019-05-31T14:20:26.167Z,315
2019-05-31T14:21:33.106Z,321
2019-05-31T14:23:11.359Z,322
2019-05-31T14:24:18.722Z,332
2019-05-31T14:25:25.680Z,337
2019-05-31T14:26:32.637Z,339
2019-05-31T14:27:39.848Z,336
2019-05-31T14:28:47.071Z,336
2019-05-31T14:29:55.836Z,342
2019-05-31T14:31:03.588Z,340
2019-05-31T14:32:10.794Z,329
2019-05-31T14:33:17.738Z,326
2019-05-31T14:34:24.970Z,326
2019-05-31T14:35:32.173Z,322
2019-05-31T14:36:39.124Z,321
2019-05-31T14:37:46.336Z,328
2019-05-31T14:38:56.441Z,330
2019-05-31T14:40:06.178Z,331
2019-05-31T14:41:13.395Z,333
2019-05-31T14:42:20.609Z,339
2019-05-31T14:43:27.549Z,338
2019-05-31T14:44:34.500Z,331
2019-05-31T14:45:41.720Z,326
2019-05-31T14:46:48.658Z,328
2019-05-31T14:47:59.153Z,332
2019-05-31T14:49:11.285Z,335
2019-05-31T14:50:18.500Z,340
2019-05-31T14:51:25.739Z,344
2019-05-31T14:52:32.957Z,341
2019-05-31T14:53:40.166Z,342
2019-05-31T14:54:47.434Z,347
2019-05-31T14:55:55.642Z,350
2019-05-31T14:57:04.254Z,352
2019-05-31T14:58:11.468Z,355
2019-05-31T14:59:18.832Z,355
2019-05-31T15:00:25.773Z,355
2019-05-31T15:01:32.992Z,352
2019-05-31T15:02:40.213Z,350
2019-05-31T15:03:47.161Z,345
2019-05-31T15:05:01.115Z,350
2019-05-31T15:06:12.409Z,350
2019-05-31T15:07:19.641Z,349
2019-05-31T15:08:26.855Z,349
2019-05-31T15:09:34.068Z,351
2019-05-31T15:10:56.227Z,354
2019-05-31T15:12:04.961Z,356
2019-05-31T15:13:24.336Z,355
2019-05-31T15:14:31.686Z,352
2019-05-31T15:15:38.933Z,352
2019-05-31T15:16:46.142Z,353
2019-05-31T15:17:56.253Z,356
2019-05-31T15:19:03.910Z,357
2019-05-31T15:20:11.137Z,361
2019-05-31T15:21:18.339Z,360
2019-05-31T15:22:25.557Z,361
2019-05-31T15:23:37.121Z,361
2019-05-31T15:24:44.342Z,360
2019-05-31T15:25:52.985Z,361
2019-05-31T15:27:04.120Z,362
2019-05-31T15:28:11.331Z,361
2019-05-31T15:29:18.287Z,361
2019-05-31T15:30:25.507Z,361
2019-05-31T15:31:32.740Z,362
2019-05-31T15:32:41.382Z,361
2019-05-31T15:33:48.600Z,363
2019-05-31T15:34:57.815Z,360
2019-05-31T15:36:06.725Z,358
2019-05-31T15:37:13.662Z,356
2019-05-31T15:38:20.877Z,357
2019-05-31T15:39:28.099Z,355
2019-05-31T15:40:35.325Z,354
2019-05-31T15:41:42.531Z,354
2019-05-31T15:42:49.475Z,353
2019-05-31T15:43:58.621Z,356
2019-05-31T15:45:06.593Z,358
2019-05-31T15:46:13.810Z,359